createdAt,value
2019-02-17T00:00:48.999Z,33.47
2019-02-17T00:03:18.265Z,34.17
2019-02-17T00:05:47.687Z,34.20
2019-02-17T00:08:16.936Z,28.50
2019-02-17T00:10:46.227Z,30.53
2019-02-17T00:13:16.256Z,29.03
2019-02-17T00:15:45.662Z,31.50
2019-02-17T00:18:14.965Z,30.07
2019-02-17T00:20:44.247Z,29.73
2019-02-17T00:23:13.530Z,33.00
2019-02-17T00:25:43.650Z,33.23
2019-02-17T00:28:12.985Z,32.27
2019-02-17T00:30:42.268Z,32.87
2019-02-17T00:33:12.508Z,33.77
2019-02-17T00:35:41.921Z,65.13
2019-02-17T00:38:11.216Z,38.70
2019-02-17T00:40:40.550Z,36.60
2019-02-17T00:43:09.871Z,31.53
2019-02-17T00:45:39.345Z,34.77
2019-02-17T00:48:08.645Z,38.47
2019-02-17T00:50:38.991Z,36.13
2019-02-17T00:53:10.622Z,31.77
2019-02-17T00:55:40.097Z,36.37
2019-02-17T00:58:09.467Z,38.73
2019-02-17T01:00:38.914Z,35.03
2019-02-17T01:03:08.574Z,33.63
2019-02-17T01:05:37.895Z,33.97
2019-02-17T01:08:07.592Z,33.60
2019-02-17T01:10:37.021Z,35.77
2019-02-17T01:13:06.291Z,31.07
2019-02-17T01:15:36.102Z,28.57
2019-02-17T01:18:05.574Z,27.23
2019-02-17T01:20:35.182Z,32.50
2019-02-17T01:23:04.499Z,36.17
2019-02-17T01:25:34.394Z,26.23
2019-02-17T01:28:03.994Z,28.60
2019-02-17T01:30:33.475Z,30.27
2019-02-17T01:33:02.760Z,28.10
2019-02-17T01:35:32.149Z,30.10
2019-02-17T01:38:01.506Z,27.27
2019-02-17T01:40:34.417Z,29.33
2019-02-17T01:43:04.229Z,26.27
2019-02-17T01:45:33.631Z,29.00
2019-02-17T01:48:02.876Z,27.47
2019-02-17T01:50:32.245Z,26.70
2019-02-17T01:53:01.527Z,26.27
2019-02-17T01:55:31.157Z,28.50
2019-02-17T01:58:00.474Z,29.80
2019-02-17T02:00:29.839Z,107.30
2019-02-17T02:02:59.105Z,34.13
2019-02-17T02:05:28.489Z,29.07
2019-02-17T02:07:57.762Z,31.20
2019-02-17T02:10:27.253Z,28.30
2019-02-17T02:12:57.012Z,28.00
2019-02-17T02:18:01.827Z,25.27
2019-02-17T02:20:31.160Z,28.50
2019-02-17T02:23:00.426Z,29.87
2019-02-17T02:25:30.389Z,29.93
2019-02-17T02:27:59.640Z,26.23
2019-02-17T02:30:29.101Z,25.63
2019-02-17T02:32:58.441Z,28.80
2019-02-17T02:35:27.878Z,29.97
2019-02-17T02:37:57.187Z,26.23
2019-02-17T02:40:27.738Z,28.77
2019-02-17T02:42:57.057Z,28.60
2019-02-17T02:45:26.453Z,30.97
2019-02-17T02:47:55.696Z,27.17
2019-02-17T02:50:25.185Z,28.57
2019-02-17T02:52:54.424Z,30.77
2019-02-17T02:55:24.773Z,33.10
2019-02-17T02:57:55.216Z,24.03
2019-02-17T03:00:25.071Z,27.73
2019-02-17T03:02:54.357Z,24.40
2019-02-17T03:05:23.751Z,23.80
2019-02-17T03:07:54.682Z,27.60
2019-02-17T03:10:24.989Z,29.53
2019-02-17T03:12:54.276Z,32.50
2019-02-17T03:15:23.725Z,26.63
2019-02-17T03:17:53.000Z,23.87
2019-02-17T03:20:22.383Z,26.50
2019-02-17T03:22:51.756Z,27.90
2019-02-17T03:25:21.141Z,31.60
2019-02-17T03:27:50.406Z,33.57
2019-02-17T03:30:20.118Z,33.13
2019-02-17T03:32:49.408Z,29.07
2019-02-17T03:35:18.778Z,33.90
2019-02-17T03:37:48.252Z,52.27
2019-02-17T03:40:17.780Z,34.77
2019-02-17T03:42:47.091Z,32.03
2019-02-17T03:45:16.408Z,26.33
2019-02-17T03:47:45.758Z,26.60
2019-02-17T03:50:17.213Z,29.97
2019-02-17T03:52:46.549Z,34.20
2019-02-17T03:55:16.066Z,29.03
2019-02-17T03:57:45.329Z,36.60
2019-02-17T04:00:17.211Z,28.37
2019-02-17T04:02:45.694Z,26.80
2019-02-17T04:05:15.699Z,29.77
2019-02-17T04:07:45.262Z,25.37
2019-02-17T04:10:14.604Z,26.70
2019-02-17T04:12:43.920Z,29.20
2019-02-17T04:15:13.426Z,21.97
2019-02-17T04:17:42.848Z,28.03
2019-02-17T04:20:12.149Z,24.13
2019-02-17T04:22:41.573Z,26.57
2019-02-17T04:25:11.212Z,23.77
2019-02-17T04:27:40.464Z,23.67
2019-02-17T04:30:09.841Z,20.27
2019-02-17T04:32:39.141Z,26.87
2019-02-17T04:35:08.604Z,22.43
2019-02-17T04:37:38.153Z,22.97
2019-02-17T04:40:07.443Z,19.60
2019-02-17T04:42:36.889Z,21.50
2019-02-17T04:45:06.625Z,20.43
2019-02-17T04:47:36.027Z,21.33
2019-02-17T04:50:05.451Z,23.50
2019-02-17T04:52:37.982Z,21.63
2019-02-17T04:55:07.779Z,20.30
2019-02-17T04:57:37.788Z,23.13
2019-02-17T05:00:07.825Z,23.50
2019-02-17T05:02:37.088Z,18.30
2019-02-17T05:05:06.729Z,21.60
2019-02-17T05:07:35.987Z,20.93
2019-02-17T05:10:05.713Z,16.37
2019-02-17T05:12:35.146Z,18.57
2019-02-17T05:15:04.623Z,21.03
2019-02-17T05:17:34.075Z,19.93
2019-02-17T05:20:03.620Z,21.80
2019-02-17T05:22:34.995Z,23.40
2019-02-17T05:25:04.447Z,20.83
2019-02-17T05:27:33.725Z,19.77
2019-02-17T05:30:04.497Z,20.53
2019-02-17T05:32:33.789Z,16.57
2019-02-17T05:35:05.066Z,17.70
2019-02-17T05:37:34.293Z,19.47
2019-02-17T05:40:03.730Z,15.37
2019-02-17T05:42:33.309Z,17.30
2019-02-17T05:45:03.867Z,18.70
2019-02-17T05:47:33.194Z,21.03
2019-02-17T05:50:02.536Z,16.47
2019-02-17T05:52:32.009Z,17.43
2019-02-17T05:55:01.293Z,17.43
2019-02-17T05:57:30.793Z,18.17
2019-02-17T06:00:01.996Z,20.10
2019-02-17T06:02:33.156Z,17.20
2019-02-17T06:05:02.429Z,16.93
2019-02-17T06:07:32.926Z,19.97
2019-02-17T06:10:02.253Z,16.13
2019-02-17T06:12:31.732Z,14.87
2019-02-17T06:15:01.012Z,19.70
2019-02-17T06:17:30.464Z,16.27
2019-02-17T06:19:59.857Z,15.30
2019-02-17T06:22:31.850Z,18.20
2019-02-17T06:25:01.822Z,16.50
2019-02-17T06:27:31.149Z,19.03
2019-02-17T06:30:00.513Z,18.63
2019-02-17T06:32:30.019Z,18.97
2019-02-17T06:34:59.450Z,16.77
2019-02-17T06:37:28.700Z,17.60
2019-02-17T06:39:58.061Z,23.17
2019-02-17T06:42:28.620Z,18.50
2019-02-17T06:44:58.063Z,18.57
2019-02-17T06:47:33.256Z,19.57
2019-02-17T06:50:02.683Z,19.27
2019-02-17T06:52:32.495Z,19.87
2019-02-17T06:55:30.246Z,20.50
2019-02-17T06:57:59.557Z,18.53
2019-02-17T07:00:35.254Z,20.30
2019-02-17T07:03:04.491Z,18.57
2019-02-17T07:05:52.893Z,20.23
2019-02-17T07:08:22.229Z,23.80
2019-02-17T07:10:51.611Z,23.57
2019-02-17T07:13:20.948Z,19.63
2019-02-17T07:15:50.450Z,17.00
2019-02-17T07:18:19.750Z,19.00
2019-02-17T07:20:49.172Z,18.27
2019-02-17T07:23:18.425Z,19.03
2019-02-17T07:25:49.102Z,15.83
2019-02-17T07:28:18.474Z,20.57
2019-02-17T07:30:47.765Z,17.93
2019-02-17T07:33:16.992Z,17.00
2019-02-17T07:35:46.407Z,18.07
2019-02-17T07:38:15.653Z,20.00
2019-02-17T07:40:47.404Z,19.67
2019-02-17T07:43:16.717Z,20.67
2019-02-17T07:45:45.980Z,20.83
2019-02-17T07:48:15.380Z,16.60
2019-02-17T07:50:44.657Z,17.47
2019-02-17T07:53:14.530Z,23.53
2019-02-17T07:55:43.848Z,21.50
2019-02-17T07:58:13.149Z,19.57
2019-02-17T08:00:44.876Z,22.17
2019-02-17T08:03:14.292Z,27.07
2019-02-17T08:05:43.595Z,33.23
2019-02-17T08:08:12.996Z,28.20
2019-02-17T08:10:42.267Z,25.87
2019-02-17T08:13:12.600Z,30.80
2019-02-17T08:15:41.956Z,33.07
2019-02-17T08:18:11.290Z,33.13
2019-02-17T08:20:40.526Z,58.27
2019-02-17T08:23:10.120Z,87.37
2019-02-17T08:25:39.521Z,82.47
2019-02-17T08:28:08.924Z,66.50
2019-02-17T08:30:38.361Z,93.87
2019-02-17T08:33:07.639Z,81.53
2019-02-17T08:35:37.135Z,83.20
2019-02-17T08:38:06.458Z,83.37
2019-02-17T08:40:35.849Z,77.70
2019-02-17T08:43:05.130Z,76.97
2019-02-17T08:45:34.543Z,75.63
2019-02-17T08:48:03.817Z,72.23
2019-02-17T08:50:33.196Z,70.73
2019-02-17T08:53:02.466Z,77.33
2019-02-17T08:55:31.927Z,79.47
2019-02-17T08:58:01.212Z,72.37
2019-02-17T09:00:30.719Z,65.50
2019-02-17T09:03:00.016Z,69.03
2019-02-17T09:05:29.496Z,62.07
2019-02-17T09:07:58.898Z,61.27
2019-02-17T09:10:28.522Z,64.33
2019-02-17T09:12:57.780Z,64.23
2019-02-17T09:15:27.218Z,65.23
2019-02-17T09:17:56.582Z,65.55
2019-02-17T09:20:25.854Z,66.92
2019-02-17T09:22:55.351Z,70.62
2019-02-17T09:25:24.626Z,70.83
2019-02-17T09:27:56.025Z,68.10
2019-02-17T09:30:26.861Z,67.10
2019-02-17T09:32:56.292Z,65.80
2019-02-17T09:35:25.736Z,66.55
2019-02-17T09:37:55.158Z,65.60
2019-02-17T09:40:24.618Z,69.32
2019-02-17T09:42:54.054Z,70.87
2019-02-17T09:45:23.425Z,66.42
2019-02-17T09:47:52.812Z,67.53
2019-02-17T09:50:23.327Z,73.17
2019-02-17T09:52:52.640Z,76.45
2019-02-17T09:55:22.004Z,69.97
2019-02-17T09:57:51.253Z,80.50
2019-02-17T10:00:20.630Z,73.33
2019-02-17T10:02:49.958Z,77.10
2019-02-17T10:05:19.384Z,72.60
2019-02-17T10:07:48.668Z,77.37
2019-02-17T10:10:18.073Z,76.82
2019-02-17T10:12:49.012Z,73.02
2019-02-17T10:15:19.931Z,71.67
2019-02-17T10:17:52.917Z,73.92
2019-02-17T10:20:24.552Z,76.72
2019-02-17T10:22:56.038Z,80.28
2019-02-17T10:25:26.874Z,71.87
2019-02-17T10:27:57.837Z,68.95
2019-02-17T10:30:29.821Z,71.95
2019-02-17T10:33:02.981Z,72.27
2019-02-17T10:35:34.854Z,69.45
2019-02-17T10:38:07.050Z,70.05
2019-02-17T10:40:38.503Z,67.60
2019-02-17T10:43:09.106Z,69.35
2019-02-17T10:45:40.993Z,69.05
2019-02-17T10:48:11.591Z,69.70
2019-02-17T10:50:41.650Z,67.35
2019-02-17T10:53:11.558Z,67.80
2019-02-17T10:55:47.043Z,61.10
2019-02-17T10:58:19.210Z,69.97
2019-02-17T11:00:59.457Z,69.20
2019-02-17T11:03:32.358Z,61.18
2019-02-17T11:06:05.718Z,62.23
2019-02-17T11:08:37.158Z,67.50
2019-02-17T11:11:09.961Z,64.65
2019-02-17T11:13:47.978Z,61.70
2019-02-17T11:16:19.020Z,65.00
2019-02-17T11:18:51.973Z,60.98
2019-02-17T11:21:21.875Z,65.00
2019-02-17T11:23:56.118Z,59.58
2019-02-17T11:26:29.246Z,63.28
2019-02-17T11:29:00.562Z,62.03
2019-02-17T11:31:30.189Z,72.90
2019-02-17T11:34:01.439Z,59.60
2019-02-17T11:36:31.050Z,58.87
2019-02-17T11:39:05.529Z,60.28
2019-02-17T11:41:37.374Z,57.27
2019-02-17T11:44:11.317Z,57.45
2019-02-17T11:46:43.015Z,60.28
2019-02-17T11:49:13.112Z,55.90
2019-02-17T11:51:45.589Z,52.48
2019-02-17T11:54:20.151Z,54.53
2019-02-17T11:56:52.665Z,53.98
2019-02-17T11:59:24.010Z,57.53
2019-02-17T12:01:56.325Z,53.05
2019-02-17T12:04:28.941Z,47.83
2019-02-17T12:07:03.107Z,48.85
2019-02-17T12:09:33.150Z,49.33
2019-02-17T12:12:09.143Z,49.08
2019-02-17T12:14:39.876Z,49.48
2019-02-17T12:17:12.198Z,52.62
2019-02-17T12:19:42.111Z,49.03
2019-02-17T12:22:23.004Z,53.30
2019-02-17T12:25:18.454Z,52.53
2019-02-17T12:27:56.346Z,53.95
2019-02-17T12:30:27.939Z,49.55
2019-02-17T12:32:57.627Z,54.30
2019-02-17T12:35:28.668Z,55.58
2019-02-17T12:38:05.701Z,55.05
2019-02-17T12:40:38.720Z,54.85
2019-02-17T12:43:09.759Z,60.25
2019-02-17T12:45:40.195Z,58.23
2019-02-17T12:48:13.311Z,62.57
2019-02-17T12:50:47.088Z,56.40
2019-02-17T12:53:18.013Z,57.03
2019-02-17T12:55:50.766Z,57.23
2019-02-17T12:58:29.599Z,58.10
2019-02-17T13:00:53.855Z,58.90
2019-02-17T13:03:28.474Z,60.13
2019-02-17T13:05:58.370Z,54.00
2019-02-17T13:08:50.024Z,53.37
2019-02-17T13:11:20.756Z,58.63
2019-02-17T13:13:51.242Z,54.10
2019-02-17T13:16:23.620Z,53.17
2019-02-17T13:18:58.649Z,51.47
2019-02-17T13:21:30.805Z,56.90
2019-02-17T13:24:03.845Z,49.70
2019-02-17T13:26:41.438Z,52.47
2019-02-17T13:29:10.988Z,50.47
2019-02-17T13:31:44.605Z,56.23
2019-02-17T13:34:16.269Z,52.20
2019-02-17T13:36:47.584Z,50.93
2019-02-17T13:39:17.838Z,51.27
2019-02-17T13:41:49.721Z,49.00
2019-02-17T13:44:21.060Z,48.63
2019-02-17T13:46:55.232Z,49.27
2019-02-17T13:49:27.768Z,54.43
2019-02-17T13:51:58.388Z,46.87
2019-02-17T13:54:30.425Z,56.77
2019-02-17T13:57:01.629Z,53.90
2019-02-17T13:59:31.903Z,46.37
2019-02-17T14:02:04.191Z,46.37
2019-02-17T14:04:35.951Z,47.23
2019-02-17T14:07:05.630Z,50.17
2019-02-17T14:09:36.368Z,48.40
2019-02-17T14:12:09.307Z,47.63
2019-02-17T14:14:39.778Z,48.27
2019-02-17T14:17:13.257Z,46.60
2019-02-17T14:19:46.064Z,48.03
2019-02-17T14:22:17.826Z,45.10
2019-02-17T14:24:52.233Z,47.80
2019-02-17T14:27:23.841Z,45.77
2019-02-17T14:29:54.315Z,47.23
2019-02-17T14:32:25.605Z,47.30
2019-02-17T14:34:58.307Z,46.40
2019-02-17T14:37:32.159Z,48.77
2019-02-17T14:40:12.875Z,49.17
2019-02-17T14:42:43.052Z,50.00
2019-02-17T14:45:16.789Z,50.60
2019-02-17T14:47:48.522Z,45.33
2019-02-17T14:50:24.112Z,49.17
2019-02-17T14:52:56.040Z,52.43
2019-02-17T14:55:30.463Z,49.23
2019-02-17T14:58:05.767Z,47.00
2019-02-17T15:00:39.659Z,48.47
2019-02-17T15:03:10.609Z,53.93
2019-02-17T15:06:03.465Z,56.83
2019-02-17T15:08:35.138Z,54.07
2019-02-17T15:11:07.872Z,54.87
2019-02-17T15:13:40.590Z,56.07
2019-02-17T15:16:11.548Z,56.63
2019-02-17T15:18:42.176Z,52.50
2019-02-17T15:21:13.473Z,52.83
2019-02-17T15:23:45.123Z,53.57
2019-02-17T15:26:17.456Z,49.23
2019-02-17T15:28:55.261Z,53.23
2019-02-17T15:31:26.786Z,44.67
2019-02-17T15:33:58.036Z,48.00
2019-02-17T15:36:33.405Z,49.17
2019-02-17T15:39:05.041Z,44.83
2019-02-17T15:41:39.923Z,46.70
2019-02-17T15:44:09.693Z,44.30
2019-02-17T15:46:41.449Z,47.20
2019-02-17T15:49:12.425Z,44.93
2019-02-17T15:51:42.949Z,44.57
2019-02-17T15:54:12.542Z,41.67
2019-02-17T15:56:44.015Z,44.40
2019-02-17T15:59:14.483Z,44.47
2019-02-17T16:01:48.562Z,48.13
2019-02-17T16:04:27.885Z,42.40
2019-02-17T16:06:53.795Z,44.23
2019-02-17T16:09:24.619Z,47.57
2019-02-17T16:12:01.042Z,48.33
2019-02-17T16:14:32.715Z,46.17
2019-02-17T16:19:57.412Z,51.47
2019-02-17T16:22:36.034Z,53.50
2019-02-17T16:25:13.177Z,46.40
2019-02-17T16:27:43.424Z,53.33
2019-02-17T16:30:15.856Z,52.93
2019-02-17T16:32:49.013Z,48.70
2019-02-17T16:35:27.618Z,53.10
2019-02-17T16:37:58.420Z,63.53
2019-02-17T16:40:29.340Z,60.93
2019-02-17T16:43:00.716Z,61.90
2019-02-17T16:45:33.667Z,68.87
2019-02-17T16:48:12.913Z,69.40
2019-02-17T16:50:39.507Z,70.57
2019-02-17T16:53:11.162Z,66.33
2019-02-17T16:55:48.275Z,76.30
2019-02-17T16:58:22.676Z,72.00
2019-02-17T17:00:57.168Z,72.27
2019-02-17T17:03:27.100Z,73.60
2019-02-17T17:05:58.162Z,73.90
2019-02-17T17:08:48.370Z,74.50
2019-02-17T17:11:22.005Z,69.20
2019-02-17T17:13:53.462Z,74.73
2019-02-17T17:16:32.620Z,68.43
2019-02-17T17:19:01.988Z,77.80
2019-02-17T17:21:32.981Z,79.77
2019-02-17T17:24:03.746Z,72.10
2019-02-17T17:26:37.697Z,75.13
2019-02-17T17:29:10.119Z,75.27
2019-02-17T17:31:40.110Z,89.40
2019-02-17T17:34:11.139Z,86.40
2019-02-17T17:36:48.086Z,87.70
2019-02-17T17:39:19.025Z,85.27
2019-02-17T17:42:11.525Z,87.80
2019-02-17T17:44:43.466Z,84.43
2019-02-17T17:47:16.943Z,85.43
2019-02-17T17:49:49.081Z,89.83
2019-02-17T17:52:19.254Z,91.27
2019-02-17T17:54:48.793Z,90.43
2019-02-17T17:57:22.553Z,92.87
2019-02-17T17:59:55.928Z,76.73
2019-02-17T18:02:29.711Z,75.77
2019-02-17T18:05:09.301Z,68.33
2019-02-17T18:07:38.714Z,69.93
2019-02-17T18:10:15.741Z,69.67
2019-02-17T18:12:50.715Z,71.53
2019-02-17T18:15:23.300Z,70.33
2019-02-17T18:17:55.049Z,66.80
2019-02-17T18:20:26.662Z,67.10
2019-02-17T18:22:58.019Z,65.90
2019-02-17T18:25:27.951Z,65.77
2019-02-17T18:27:59.897Z,68.60
2019-02-17T18:30:33.077Z,72.20
2019-02-17T18:33:04.221Z,63.87
2019-02-17T18:35:35.354Z,80.13
2019-02-17T18:38:07.726Z,80.73
2019-02-17T18:40:46.052Z,74.57
2019-02-17T18:43:10.066Z,80.40
2019-02-17T18:45:42.793Z,85.93
2019-02-17T18:48:13.224Z,80.87
2019-02-17T18:50:44.189Z,93.73
2019-02-17T18:53:15.901Z,72.73
2019-02-17T18:55:47.805Z,74.97
2019-02-17T18:58:19.384Z,82.07
2019-02-17T19:00:51.216Z,77.60
2019-02-17T19:03:23.973Z,80.90
2019-02-17T19:05:58.421Z,75.70
2019-02-17T19:08:31.798Z,75.80
2019-02-17T19:11:04.770Z,74.03
2019-02-17T19:13:35.013Z,76.47
2019-02-17T19:16:12.450Z,85.27
2019-02-17T19:18:42.998Z,80.93
2019-02-17T19:21:13.834Z,83.93
2019-02-17T19:23:46.961Z,82.57
2019-02-17T19:26:33.897Z,81.37
2019-02-17T19:29:03.634Z,79.43
2019-02-17T19:31:34.105Z,84.37
2019-02-17T19:34:04.875Z,85.13
2019-02-17T19:36:35.866Z,86.03
2019-02-17T19:39:06.808Z,85.27
2019-02-17T19:41:39.558Z,88.37
2019-02-17T19:44:11.965Z,89.23
2019-02-17T19:46:44.824Z,89.93
2019-02-17T19:49:14.845Z,88.40
2019-02-17T19:51:49.654Z,84.67
2019-02-17T19:54:22.445Z,88.60
2019-02-17T19:56:54.606Z,91.00
2019-02-17T19:59:45.196Z,88.77
2019-02-17T20:02:19.874Z,86.50
2019-02-17T20:05:07.226Z,84.13
2019-02-17T20:07:48.292Z,91.57
2019-02-17T20:10:21.778Z,85.03
2019-02-17T20:12:59.838Z,90.60
2019-02-17T20:15:31.837Z,86.97
2019-02-17T20:18:01.637Z,83.20
2019-02-17T20:20:32.690Z,83.47
2019-02-17T20:23:06.066Z,88.53
2019-02-17T20:25:38.337Z,83.97
2019-02-17T20:28:10.335Z,84.77
2019-02-17T20:30:49.354Z,81.93
2019-02-17T20:33:33.413Z,84.57
2019-02-17T20:36:03.805Z,90.53
2019-02-17T20:38:36.546Z,86.20
2019-02-17T20:41:08.208Z,85.63
2019-02-17T20:43:38.571Z,85.20
2019-02-17T20:46:10.235Z,78.33
2019-02-17T20:48:45.028Z,86.30
2019-02-17T20:51:21.972Z,85.70
2019-02-17T20:54:00.506Z,84.20
2019-02-17T20:56:41.682Z,82.63
2019-02-17T20:59:13.024Z,81.90
2019-02-17T21:01:59.743Z,88.57
2019-02-17T21:07:13.315Z,83.40
2019-02-17T21:09:43.024Z,81.97
2019-02-17T21:12:12.508Z,83.17
2019-02-17T21:14:44.596Z,77.40
2019-02-17T21:17:14.137Z,85.87
2019-02-17T21:19:43.601Z,82.27
2019-02-17T21:22:13.010Z,85.23
2019-02-17T21:24:42.732Z,76.43
2019-02-17T21:27:12.320Z,77.77
2019-02-17T21:29:42.041Z,84.47
2019-02-17T21:32:15.565Z,79.63
2019-02-17T21:34:44.971Z,86.43
2019-02-17T21:37:14.529Z,89.77
2019-02-17T21:39:47.144Z,85.57
2019-02-17T21:42:16.560Z,79.47
2019-02-17T21:44:49.019Z,89.97
2019-02-17T21:47:23.167Z,81.70
2019-02-17T21:50:03.704Z,77.67
2019-02-17T21:52:41.656Z,269.17
2019-02-17T21:55:10.479Z,77.67
2019-02-17T21:57:40.096Z,77.00
2019-02-17T22:00:12.316Z,74.70
2019-02-17T22:02:42.108Z,79.23
2019-02-17T22:05:11.493Z,78.10
2019-02-17T22:07:43.813Z,79.73
2019-02-17T22:10:13.826Z,84.93
2019-02-17T22:12:43.333Z,75.23
2019-02-17T22:15:13.986Z,85.53
2019-02-17T22:17:43.407Z,80.30
2019-02-17T22:20:12.736Z,78.83
2019-02-17T22:22:42.045Z,81.00
2019-02-17T22:25:12.197Z,77.33
2019-02-17T22:27:41.546Z,79.07
2019-02-17T22:30:11.136Z,80.43
2019-02-17T22:32:40.469Z,73.33
2019-02-17T22:35:10.167Z,72.53
2019-02-17T22:37:39.463Z,73.27
2019-02-17T22:40:09.536Z,77.93
2019-02-17T22:42:38.895Z,73.33
2019-02-17T22:45:08.728Z,74.63
2019-02-17T22:47:38.383Z,75.03
2019-02-17T22:50:09.454Z,75.23
2019-02-17T22:52:38.718Z,77.67
2019-02-17T22:55:09.321Z,78.87
2019-02-17T22:57:39.181Z,77.30
2019-02-17T23:00:19.313Z,88.57
2019-02-17T23:02:48.572Z,79.83
2019-02-17T23:05:18.098Z,79.70
2019-02-17T23:07:47.631Z,80.43
2019-02-17T23:10:17.021Z,81.93
2019-02-17T23:12:46.366Z,86.73
2019-02-17T23:15:15.832Z,81.57
2019-02-17T23:17:45.077Z,83.83
2019-02-17T23:20:14.737Z,89.00
2019-02-17T23:22:44.013Z,100.93
2019-02-17T23:25:15.897Z,110.17
2019-02-17T23:27:45.197Z,100.23
2019-02-17T23:30:14.668Z,103.13
2019-02-17T23:32:44.234Z,111.17
2019-02-17T23:35:13.684Z,116.47
2019-02-17T23:37:43.021Z,102.53
2019-02-17T23:40:12.518Z,92.20
2019-02-17T23:42:41.752Z,93.10
2019-02-17T23:45:11.358Z,97.90
2019-02-17T23:47:40.773Z,89.43
2019-02-17T23:50:10.758Z,92.77
2019-02-17T23:52:40.207Z,83.90
2019-02-17T23:55:10.341Z,82.07
2019-02-17T23:57:41.056Z,78.73
